Time;durP1;ratioP1;P1;durP2;ratioP2;P2;SDS_P1;SDS_P2;PMS_P1;PMS_P2;Temp;Humidity;BMP_temperature;BMP_pressure;BME280_temperature;BME280_humidity;BME280_pressure;Samples;Min_cycle;Max_cycle;Signal;HPM_P1;HPM_P2
2022/02/20 00:00:53;;;;;;;;;3.00;2.00;;;;;11.80;58.27;101248.81;2071014;28;47924;-58
2022/02/20 00:01:54;;;;;;;;;2.00;2.00;;;;;11.79;58.54;101250.59;2071303;28;47550;-55
2022/02/20 00:02:54;;;;;;;;;2.00;2.00;;;;;11.80;58.35;101256.78;2070951;28;47701;-55
2022/02/20 00:03:54;;;;;;;;;3.00;2.00;;;;;11.79;58.34;101244.41;2071042;28;47206;-57
2022/02/20 00:04:55;;;;;;;;;2.33;1.00;;;;;11.78;58.51;101251.47;2071052;28;46670;-57
2022/02/20 00:05:55;;;;;;;;;1.67;1.00;;;;;11.78;58.55;101246.13;2070796;28;47757;-55
2022/02/20 00:06:56;;;;;;;;;2.00;2.00;;;;;11.78;58.37;101243.47;2071137;28;47649;-56
2022/02/20 00:07:56;;;;;;;;;1.00;1.00;;;;;11.79;58.51;101252.38;2070735;28;46564;-56
2022/02/20 00:08:57;;;;;;;;;1.00;1.00;;;;;11.79;58.68;101245.25;2070935;28;47687;-57
2022/02/20 00:09:57;;;;;;;;;3.67;3.00;;;;;11.82;58.61;101249.69;2071034;28;47476;-56
2022/02/20 00:10:58;;;;;;;;;2.00;2.00;;;;;11.83;58.46;101251.44;2070811;28;47926;-56
2022/02/20 00:11:58;;;;;;;;;2.00;2.00;;;;;11.84;58.34;101252.31;2071197;28;47557;-56
2022/02/20 00:13:00;;;;;;;;;0.33;0.33;;;;;11.84;58.77;101249.66;2071147;28;48115;-56
2022/02/20 00:14:00;;;;;;;;;3.25;2.00;;;;;11.83;58.49;101243.44;2070950;28;47808;-57
2022/02/20 00:15:01;;;;;;;;;2.00;2.00;;;;;11.84;58.69;101244.31;2070909;28;47778;-57
2022/02/20 00:16:01;;;;;;;;;1.00;1.00;;;;;11.84;58.51;101247.88;2070800;28;47215;-57
2022/02/20 00:17:02;;;;;;;;;1.00;1.00;;;;;11.86;58.51;101245.16;2071224;28;47866;-57
2022/02/20 00:18:03;;;;;;;;;1.00;1.00;;;;;11.83;58.79;101246.13;2070306;28;47604;-56
2022/02/20 00:19:04;;;;;;;;;1.25;1.00;;;;;11.85;58.73;101249.63;2070379;28;48107;-56
2022/02/20 00:20:05;;;;;;;;;1.67;1.00;;;;;11.85;58.72;101243.41;2062827;28;47626;-54
2022/02/20 00:21:05;;;;;;;;;1.25;1.00;;;;;11.85;58.68;101246.97;2066352;28;47567;-51
2022/02/20 00:22:06;;;;;;;;;1.33;1.33;;;;;11.86;58.81;101246.03;2071479;28;45179;-55
2022/02/20 00:23:06;;;;;;;;;1.67;0.67;;;;;11.86;58.88;101235.41;2071047;28;47213;-55
2022/02/20 00:24:07;;;;;;;;;1.33;0.00;;;;;11.86;58.73;101238.06;2070891;28;47840;-57
2022/02/20 00:25:08;;;;;;;;;2.00;2.00;;;;;11.86;59.01;101227.44;2070911;28;47230;-55
2022/02/20 00:26:09;;;;;;;;;1.00;1.00;;;;;11.86;58.91;101245.16;2070158;28;48120;-55
2022/02/20 00:27:09;;;;;;;;;1.00;1.00;;;;;11.85;58.66;101235.44;2072027;28;47534;-53
2022/02/20 00:28:10;;;;;;;;;2.00;2.00;;;;;11.86;58.86;101239.84;2070942;28;47480;-55
2022/02/20 00:29:11;;;;;;;;;3.00;2.00;;;;;11.84;58.79;101236.34;2070762;28;48190;-56
2022/02/20 00:30:11;;;;;;;;;3.00;2.33;;;;;11.85;58.96;101231.00;2061702;28;47442;-53
2022/02/20 00:31:12;;;;;;;;;2.00;1.00;;;;;11.85;58.82;101231.00;2053556;28;47245;-57
2022/02/20 00:32:12;;;;;;;;;2.33;1.00;;;;;11.87;58.88;101231.84;2070336;28;47594;-55
2022/02/20 00:33:13;;;;;;;;;2.67;1.33;;;;;11.87;58.75;101228.31;2070493;28;47434;-56
2022/02/20 00:34:14;;;;;;;;;2.00;1.00;;;;;11.88;59.15;101233.59;2070298;28;47919;-58
2022/02/20 00:35:14;;;;;;;;;1.00;1.00;;;;;11.90;58.74;101231.78;2071055;28;47676;-56
2022/02/20 00:36:14;;;;;;;;;1.00;1.00;;;;;11.91;58.88;101233.53;2070820;28;47781;-58
2022/02/20 00:37:15;;;;;;;;;2.33;2.00;;;;;11.91;59.06;101235.31;2070965;28;47776;-56
2022/02/20 00:38:15;;;;;;;;;3.00;1.00;;;;;11.92;58.88;101235.28;2071014;28;47982;-54
2022/02/20 00:39:16;;;;;;;;;1.00;1.00;;;;;11.92;59.11;101234.41;2070671;28;47813;-56
2022/02/20 00:40:16;;;;;;;;;2.00;2.00;;;;;11.92;58.89;101227.31;2070752;28;48066;-57
2022/02/20 00:41:19;;;;;;;;;2.00;1.00;;;;;11.93;58.92;101231.72;2070969;28;47438;-58
2022/02/20 00:42:20;;;;;;;;;1.50;1.50;;;;;11.94;59.01;101245.88;2071019;28;47742;-57
2022/02/20 00:43:20;;;;;;;;;3.25;2.00;;;;;11.95;58.79;101243.22;2070946;28;48058;-58
2022/02/20 00:44:21;;;;;;;;;1.00;1.00;;;;;11.95;59.13;101243.22;2071046;28;45902;-56
2022/02/20 00:45:22;;;;;;;;;1.00;1.00;;;;;11.94;59.17;101233.50;2070764;28;48041;-55
2022/02/20 00:46:22;;;;;;;;;1.00;1.00;;;;;11.94;58.99;101235.25;2070923;28;47440;-55
2022/02/20 00:47:22;;;;;;;;;3.00;2.00;;;;;11.94;58.94;101245.88;2070723;28;47544;-56
2022/02/20 00:48:23;;;;;;;;;2.33;2.33;;;;;11.93;58.92;101242.34;2070891;28;47512;-57
2022/02/20 00:49:23;;;;;;;;;4.00;1.00;;;;;11.93;59.27;101245.00;2070715;28;47727;-56
2022/02/20 00:50:25;;;;;;;;;2.00;2.00;;;;;11.94;59.26;101240.56;2070529;28;47498;-57
2022/02/20 00:51:26;;;;;;;;;1.00;1.00;;;;;11.93;59.18;101242.34;2070017;28;47398;-56
2022/02/20 00:52:26;;;;;;;;;1.00;1.00;;;;;11.93;59.27;101236.16;2071027;28;48071;-55
2022/02/20 00:53:28;;;;;;;;;0.67;0.67;;;;;11.94;59.15;101240.56;2071157;28;47680;-55
2022/02/20 00:54:29;;;;;;;;;1.00;1.00;;;;;11.94;59.32;101253.88;2070618;28;47687;-55
2022/02/20 00:55:29;;;;;;;;;1.00;1.00;;;;;11.95;59.35;101247.66;2070953;28;47834;-54
2022/02/20 00:56:30;;;;;;;;;3.00;2.00;;;;;11.95;59.24;101239.69;2070822;28;48221;-57
2022/02/20 00:57:30;;;;;;;;;2.33;2.33;;;;;11.95;59.33;101240.56;2070839;28;47359;-56
2022/02/20 00:58:32;;;;;;;;;2.00;1.00;;;;;11.96;59.42;101244.97;2070967;28;48024;-57
2022/02/20 00:59:32;;;;;;;;;1.00;1.00;;;;;11.96;59.04;101242.31;2062530;28;47726;-56
2022/02/20 01:00:33;;;;;;;;;3.33;1.00;;;;;11.96;59.29;101237.00;2063093;28;47944;-57
2022/02/20 01:01:33;;;;;;;;;2.00;2.00;;;;;11.97;59.40;101237.88;2072049;28;47550;-56
2022/02/20 01:02:34;;;;;;;;;1.67;1.00;;;;;11.96;59.33;101239.66;2072207;28;47890;-55
2022/02/20 01:03:34;;;;;;;;;2.67;2.00;;;;;11.96;59.33;101234.34;2072327;28;47412;-55
2022/02/20 01:04:34;;;;;;;;;2.00;1.00;;;;;11.98;59.49;101231.66;2072037;28;47392;-57
2022/02/20 01:05:35;;;;;;;;;2.00;2.00;;;;;11.98;59.32;101228.97;2072192;28;47401;-56
2022/02/20 01:06:35;;;;;;;;;1.00;1.00;;;;;11.97;59.63;101228.09;2071694;28;48050;-54
2022/02/20 01:07:36;;;;;;;;;1.33;1.00;;;;;11.98;59.68;101228.97;2071995;28;48754;-56
2022/02/20 01:08:36;;;;;;;;;1.00;1.00;;;;;11.98;59.31;101228.97;2072139;28;47792;-55
2022/02/20 01:09:37;;;;;;;;;1.00;1.00;;;;;12.00;59.40;101236.03;2071976;28;47901;-58
2022/02/20 01:10:37;;;;;;;;;0.67;0.67;;;;;12.01;59.97;101231.56;2071733;28;47851;-52
2022/02/20 01:11:38;;;;;;;;;2.67;2.67;;;;;12.01;59.39;101239.56;2071847;28;47891;-56
2022/02/20 01:12:38;;;;;;;;;1.00;1.00;;;;;12.00;59.53;101236.03;2072074;28;47818;-60
2022/02/20 01:13:39;;;;;;;;;3.00;2.00;;;;;12.01;59.56;101231.56;2072232;28;47584;-57
2022/02/20 01:14:39;;;;;;;;;0.33;0.33;;;;;12.01;59.64;101224.47;2071978;28;47625;-55
2022/02/20 01:15:40;;;;;;;;;3.33;2.33;;;;;12.01;59.39;101235.13;2071638;28;47143;-56
2022/02/20 01:16:40;;;;;;;;;1.00;1.00;;;;;12.01;59.70;101235.13;2071103;28;47263;-57
2022/02/20 01:17:41;;;;;;;;;3.00;2.00;;;;;12.01;59.72;101231.56;2072157;28;48482;-57
2022/02/20 01:18:42;;;;;;;;;2.00;1.00;;;;;12.01;59.74;101219.16;2072025;28;47453;-56
2022/02/20 01:19:42;;;;;;;;;1.00;1.00;;;;;12.01;59.91;101232.44;2068665;28;47589;-55
2022/02/20 01:20:43;;;;;;;;;2.00;1.00;;;;;12.01;59.68;101236.91;2068289;28;47803;-57
2022/02/20 01:21:43;;;;;;;;;3.00;1.00;;;;;12.01;59.47;101237.78;2072084;28;47750;-56
2022/02/20 01:22:44;;;;;;;;;3.00;3.00;;;;;12.02;59.82;101241.31;2072532;28;45101;-55
2022/02/20 01:23:44;;;;;;;;;1.67;1.33;;;;;12.01;59.79;101236.91;2071993;28;47368;-56
2022/02/20 01:24:45;;;;;;;;;1.00;1.00;;;;;12.01;59.92;101239.56;2071902;28;48218;-56
2022/02/20 01:25:45;;;;;;;;;3.00;1.00;;;;;11.99;59.77;101234.28;2062390;28;47549;-57
2022/02/20 01:26:46;;;;;;;;;3.00;2.67;;;;;12.00;59.62;101233.38;2062618;28;47996;-55
2022/02/20 01:27:46;;;;;;;;;1.33;1.33;;;;;12.02;59.80;101236.00;2072146;28;48011;-52
2022/02/20 01:28:47;;;;;;;;;2.00;1.00;;;;;12.01;59.73;101227.13;2071904;28;47991;-57
2022/02/20 01:29:47;;;;;;;;;1.00;1.00;;;;;12.02;59.56;101236.88;2062643;28;45793;-56
2022/02/20 01:30:47;;;;;;;;;0.67;0.33;;;;;12.03;59.82;101233.28;2062681;28;47458;-58
2022/02/20 01:31:49;;;;;;;;;2.67;1.67;;;;;12.02;59.93;101225.34;2062530;28;47523;-56
2022/02/20 01:32:49;;;;;;;;;2.25;1.75;;;;;12.03;59.84;101221.78;2054795;28;47609;-56
2022/02/20 01:33:50;;;;;;;;;2.00;2.00;;;;;12.03;59.99;101225.31;2054744;28;47892;-57
2022/02/20 01:34:50;;;;;;;;;1.67;1.00;;;;;12.03;59.94;101225.31;2062486;28;47552;-55
2022/02/20 01:35:51;;;;;;;;;1.33;1.33;;;;;12.05;59.67;101231.47;2062973;28;47671;-55
2022/02/20 01:36:51;;;;;;;;;4.00;2.33;;;;;12.04;60.08;101221.75;2062893;28;47107;-57
2022/02/20 01:37:52;;;;;;;;;3.00;2.00;;;;;12.05;59.74;101226.16;2063062;28;47262;-56
2022/02/20 01:38:52;;;;;;;;;3.00;2.33;;;;;12.06;59.97;101227.91;2062943;28;47100;-56
2022/02/20 01:39:53;;;;;;;;;1.67;1.67;;;;;12.07;59.79;101231.47;2063063;28;45186;-58
2022/02/20 01:40:55;;;;;;;;;2.33;1.00;;;;;12.08;59.73;101236.75;2062781;28;47904;-55
2022/02/20 01:41:56;;;;;;;;;1.25;1.25;;;;;12.08;59.82;101238.53;2062589;28;47891;-56
2022/02/20 01:42:57;;;;;;;;;3.00;3.00;;;;;12.10;59.81;101238.50;2062925;28;47273;-57
2022/02/20 01:43:58;;;;;;;;;3.25;2.00;;;;;12.09;60.14;101242.97;2062749;28;47958;-57
2022/02/20 01:44:58;;;;;;;;;2.00;2.00;;;;;12.10;59.99;101244.72;2054285;28;47592;-56
2022/02/20 01:45:59;;;;;;;;;1.00;1.00;;;;;12.10;60.02;101243.84;2054481;28;47685;-55
2022/02/20 01:47:06;;;;;;;;;1.00;1.00;;;;;12.08;59.92;101249.19;2062643;28;47503;-54
2022/02/20 01:48:07;;;;;;;;;1.50;1.50;;;;;12.10;59.94;101238.50;2062780;28;47668;-56
2022/02/20 01:49:07;;;;;;;;;1.67;1.67;;;;;12.08;60.02;101247.41;2062951;28;47529;-56
2022/02/20 01:50:10;;;;;;;;;2.00;2.00;;;;;12.10;60.08;101238.50;2062777;28;47348;-58
2022/02/20 01:51:10;;;;;;;;;3.00;2.50;;;;;12.10;60.10;101246.50;2062857;28;48029;-55
2022/02/20 01:52:12;;;;;;;;;1.33;1.33;;;;;12.10;59.87;101243.84;2062702;28;47628;-57
2022/02/20 01:53:12;;;;;;;;;2.00;2.00;;;;;12.08;60.09;101241.22;2062710;28;47185;-57
2022/02/20 01:54:13;;;;;;;;;2.33;2.00;;;;;12.10;60.13;101243.84;2062700;28;47896;-56
2022/02/20 01:55:14;;;;;;;;;1.00;1.00;;;;;12.10;59.96;101242.03;2062401;28;47570;-56
2022/02/20 01:56:15;;;;;;;;;1.25;1.25;;;;;12.11;60.01;101245.59;2062840;28;48356;-55
2022/02/20 01:57:16;;;;;;;;;1.25;1.00;;;;;12.10;60.05;101235.84;2062647;28;47484;-56
2022/02/20 01:58:17;;;;;;;;;4.33;2.00;;;;;12.11;60.07;101234.94;2062658;28;47293;-57
2022/02/20 01:59:18;;;;;;;;;2.00;2.00;;;;;12.10;60.11;101223.44;2062979;28;47383;-57
2022/02/20 02:00:19;;;;;;;;;2.50;2.25;;;;;12.11;60.23;101227.84;2062779;28;47081;-57
2022/02/20 02:01:19;;;;;;;;;4.67;1.67;;;;;12.11;60.29;101216.31;2065484;28;48124;-55
2022/02/20 02:02:20;;;;;;;;;4.67;1.67;;;;;12.11;60.00;101226.97;2071840;28;47742;-57
2022/02/20 02:03:21;;;;;;;;;2.00;2.00;;;;;12.11;60.35;101224.31;2071937;28;47249;-55
2022/02/20 02:04:22;;;;;;;;;1.00;1.00;;;;;12.11;60.21;101219.84;2071868;28;47757;-57
2022/02/20 02:05:22;;;;;;;;;1.75;1.75;;;;;12.12;60.29;101220.72;2071764;28;47554;-55
2022/02/20 02:06:23;;;;;;;;;2.00;2.00;;;;;12.10;60.31;101215.44;2071649;28;47847;-57
2022/02/20 02:07:23;;;;;;;;;3.00;2.00;;;;;12.12;60.18;101221.59;2071937;28;47633;-55
2022/02/20 02:08:24;;;;;;;;;2.00;1.00;;;;;12.11;60.39;101216.31;2071603;28;47320;-57
2022/02/20 02:09:24;;;;;;;;;3.00;3.00;;;;;12.12;60.31;101223.38;2072129;28;47591;-53
2022/02/20 02:10:25;;;;;;;;;3.67;1.00;;;;;12.11;60.53;101225.19;2070791;28;47492;-57
2022/02/20 02:11:26;;;;;;;;;1.00;1.00;;;;;12.11;60.49;101219.84;2071586;28;46491;-55
2022/02/20 02:12:26;;;;;;;;;1.50;1.50;;;;;12.11;60.27;101225.19;2071779;28;47678;-53
2022/02/20 02:13:27;;;;;;;;;3.67;3.00;;;;;12.12;60.43;101228.72;2071766;28;47423;-56
2022/02/20 02:14:27;;;;;;;;;2.00;2.00;;;;;12.10;60.49;101215.44;2071750;28;47041;-57
2022/02/20 02:15:28;;;;;;;;;4.00;2.67;;;;;12.11;60.42;101221.63;2071653;28;47788;-57
2022/02/20 02:16:29;;;;;;;;;3.50;1.75;;;;;12.11;60.34;101225.19;2071477;28;47542;-56
2022/02/20 02:17:30;;;;;;;;;2.67;1.67;;;;;12.12;60.48;101232.25;2071981;28;47598;-57
2022/02/20 02:18:30;;;;;;;;;3.50;3.50;;;;;12.13;60.33;101231.34;2071550;28;47714;-56
2022/02/20 02:19:30;;;;;;;;;2.00;2.00;;;;;12.13;60.56;101225.13;2070101;28;47565;-56
2022/02/20 02:20:31;;;;;;;;;2.00;2.00;;;;;12.14;60.44;101229.56;2070536;28;47966;-58
2022/02/20 02:21:31;;;;;;;;;2.00;0.67;;;;;12.13;60.30;101233.13;2071738;28;47929;-54
2022/02/20 02:22:32;;;;;;;;;3.00;3.00;;;;;12.13;60.43;101233.13;2071744;28;47982;-57
2022/02/20 02:23:33;;;;;;;;;2.75;2.75;;;;;12.13;60.18;101227.81;2071265;28;48180;-57
2022/02/20 02:24:33;;;;;;;;;3.00;3.00;;;;;12.13;60.30;101228.69;2071890;28;47425;-58
2022/02/20 02:25:37;;;;;;;;;3.00;2.00;;;;;12.13;60.20;101227.81;2071446;28;48036;-56
2022/02/20 02:26:39;;;;;;;;;1.50;1.50;;;;;12.13;60.28;101231.34;2071565;28;47397;-55
2022/02/20 02:27:39;;;;;;;;;2.75;2.50;;;;;12.13;60.63;101228.69;2072381;28;47600;-57
2022/02/20 02:28:40;;;;;;;;;3.00;2.67;;;;;12.13;60.28;101231.34;2062121;28;45866;-56
2022/02/20 02:29:43;;;;;;;;;3.33;1.00;;;;;12.12;60.29;101226.94;2062096;28;47764;-56
2022/02/20 02:30:46;;;;;;;;;3.25;3.25;;;;;12.14;60.39;101233.09;2062432;28;47632;-55
2022/02/20 02:31:46;;;;;;;;;2.25;1.25;;;;;12.15;60.27;101236.63;2061934;28;47361;-55
2022/02/20 02:32:47;;;;;;;;;2.00;2.00;;;;;12.14;60.42;101222.44;2062597;28;47765;-58
2022/02/20 02:33:49;;;;;;;;;2.00;2.00;;;;;12.15;60.20;101231.31;2062507;28;46879;-57
2022/02/20 02:34:50;;;;;;;;;3.25;2.75;;;;;12.15;60.22;101232.19;2062573;28;48315;-56
2022/02/20 02:35:50;;;;;;;;;3.00;3.00;;;;;12.16;60.27;101243.69;2045855;28;47020;-57
2022/02/20 02:36:51;;;;;;;;;1.00;1.00;;;;;12.16;60.35;101230.41;2046392;28;47810;-57
2022/02/20 02:37:54;;;;;;;;;4.67;3.00;;;;;12.14;60.33;101230.44;2062272;28;47790;-57
2022/02/20 02:38:54;;;;;;;;;2.75;2.75;;;;;12.14;60.35;101218.91;2062471;28;47479;-55
2022/02/20 02:39:55;;;;;;;;;3.00;1.67;;;;;12.13;60.30;101223.34;2062562;28;47172;-56
2022/02/20 02:40:59;;;;;;;;;3.67;2.33;;;;;12.13;60.25;101225.13;2062471;28;47678;-56
2022/02/20 02:42:00;;;;;;;;;3.75;2.50;;;;;12.14;60.41;101213.59;2062266;28;47860;-55
2022/02/20 02:43:00;;;;;;;;;2.00;2.00;;;;;12.12;60.32;101202.97;2054602;28;47194;-57
2022/02/20 02:44:00;;;;;;;;;2.00;2.00;;;;;12.13;60.46;101215.38;2054140;28;47639;-57
2022/02/20 02:45:01;;;;;;;;;6.33;3.00;;;;;12.14;60.24;101219.78;2062542;28;48001;-57
2022/02/20 02:46:02;;;;;;;;;1.67;1.33;;;;;12.13;60.23;101215.38;2062304;28;47333;-54
2022/02/20 02:47:03;;;;;;;;;2.00;2.00;;;;;12.14;60.23;101218.91;2054223;28;47391;-55
2022/02/20 02:48:03;;;;;;;;;5.25;3.00;;;;;12.13;60.31;101212.72;2035298;28;47754;-56
2022/02/20 02:49:04;;;;;;;;;2.67;1.33;;;;;12.13;60.23;101220.69;2038108;28;47810;-56
2022/02/20 02:50:05;;;;;;;;;4.00;3.00;;;;;12.13;60.14;101225.13;2062370;28;48018;-57
2022/02/20 02:51:05;;;;;;;;;3.67;3.00;;;;;12.12;60.09;101223.38;2062735;28;45255;-56
2022/02/20 02:52:06;;;;;;;;;2.00;2.00;;;;;12.13;60.24;101222.47;2062301;28;47920;-55
2022/02/20 02:53:07;;;;;;;;;1.75;1.75;;;;;12.13;60.22;101219.81;2054206;28;47484;-54
2022/02/20 02:54:09;;;;;;;;;3.00;1.67;;;;;12.12;60.08;101221.59;2054334;28;47794;-56
2022/02/20 02:55:10;;;;;;;;;4.00;2.50;;;;;12.14;60.06;101226.88;2061877;28;46734;-56
2022/02/20 02:56:10;;;;;;;;;2.67;2.67;;;;;12.13;60.25;101225.13;2062390;28;47655;-57
2022/02/20 02:57:11;;;;;;;;;3.33;2.00;;;;;12.13;60.37;101222.47;2062402;28;47486;-56
2022/02/20 02:58:16;;;;;;;;;5.00;2.67;;;;;12.12;59.94;101232.25;2054327;28;47639;-55
2022/02/20 02:59:18;;;;;;;;;4.00;3.00;;;;;12.11;60.13;101226.97;2054588;28;47720;-57
2022/02/20 03:00:18;;;;;;;;;3.00;2.00;;;;;12.11;60.18;101225.19;2066145;28;47577;-56
2022/02/20 03:01:18;;;;;;;;;2.00;2.00;;;;;12.11;60.27;101224.31;2071411;28;46358;-54
2022/02/20 03:02:19;;;;;;;;;3.00;3.00;;;;;12.11;60.13;101227.84;2071295;28;47489;-56
2022/02/20 03:03:20;;;;;;;;;3.00;3.00;;;;;12.11;60.12;101227.84;2062153;28;47409;-55
2022/02/20 03:04:20;;;;;;;;;6.00;3.00;;;;;12.12;60.07;101234.03;2062072;28;47664;-55
2022/02/20 03:05:20;;;;;;;;;4.00;4.00;;;;;12.12;60.27;101220.72;2071575;28;46995;-57
2022/02/20 03:06:21;;;;;;;;;3.00;3.00;;;;;12.11;59.92;101222.50;2071410;28;47855;-57
2022/02/20 03:07:21;;;;;;;;;3.33;3.00;;;;;12.11;60.17;101219.84;2070031;28;47726;-56
2022/02/20 03:08:22;;;;;;;;;4.00;3.67;;;;;12.11;60.23;101229.63;2070337;28;47672;-55
2022/02/20 03:09:22;;;;;;;;;3.00;2.00;;;;;12.11;59.96;101229.63;2071226;28;48091;-57
2022/02/20 03:10:23;;;;;;;;;2.33;2.33;;;;;12.10;60.11;101234.06;2071165;28;47235;-57
2022/02/20 03:11:23;;;;;;;;;1.67;1.67;;;;;12.11;60.16;101233.16;2071428;28;47424;-57
2022/02/20 03:12:24;;;;;;;;;4.50;3.75;;;;;12.10;60.02;101234.06;2070765;28;47597;-57
2022/02/20 03:13:24;;;;;;;;;3.67;3.00;;;;;12.11;60.00;101226.97;2070967;28;47456;-56
2022/02/20 03:14:25;;;;;;;;;3.33;2.00;;;;;12.09;60.05;101229.66;2071272;28;47572;-57
2022/02/20 03:15:25;;;;;;;;;2.33;2.00;;;;;12.10;60.05;101225.22;2071218;28;47386;-52
2022/02/20 03:16:26;;;;;;;;;3.00;3.00;;;;;12.10;60.18;101230.53;2071087;28;47995;-58
2022/02/20 03:17:26;;;;;;;;;3.00;2.00;;;;;12.07;60.31;101221.72;2071097;28;47728;-56
2022/02/20 03:18:30;;;;;;;;;2.33;2.33;;;;;12.08;60.33;101220.81;2071230;28;48113;-57
2022/02/20 03:19:30;;;;;;;;;1.75;1.75;;;;;12.08;60.09;101218.13;2069250;28;47931;-56
2022/02/20 03:20:31;;;;;;;;;4.50;2.00;;;;;12.08;60.20;101218.13;2062839;28;48084;-56
2022/02/20 03:21:31;;;;;;;;;1.33;1.33;;;;;12.10;60.13;101220.75;2069551;28;47342;-57
2022/02/20 03:22:32;;;;;;;;;2.00;2.00;;;;;12.08;60.15;101215.47;2070630;28;47221;-57
2022/02/20 03:23:34;;;;;;;;;1.00;1.00;;;;;12.07;60.28;101227.03;2071221;28;47150;-57
2022/02/20 03:24:35;;;;;;;;;4.00;2.50;;;;;12.07;60.33;101220.84;2070861;28;47435;-57
2022/02/20 03:25:35;;;;;;;;;3.67;2.67;;;;;12.06;60.37;101227.91;2070763;28;47436;-55
2022/02/20 03:26:36;;;;;;;;;3.75;1.50;;;;;12.08;60.43;101241.22;2070358;28;47068;-56
2022/02/20 03:27:36;;;;;;;;;1.67;1.67;;;;;12.07;60.24;101229.69;2053383;28;47475;-54
2022/02/20 03:28:37;;;;;;;;;2.33;2.00;;;;;12.07;60.29;101243.00;2062061;28;47710;-55
2022/02/20 03:29:37;;;;;;;;;2.00;2.00;;;;;12.07;60.26;101240.34;2071193;28;46452;-55
2022/02/20 03:30:37;;;;;;;;;5.33;2.00;;;;;12.06;60.25;101232.34;2071264;28;47351;-57
2022/02/20 03:31:38;;;;;;;;;4.00;3.00;;;;;12.06;60.45;101243.00;2071095;28;47818;-56
2022/02/20 03:32:38;;;;;;;;;4.33;4.00;;;;;12.06;60.35;101237.66;2070971;28;47674;-56
2022/02/20 03:33:39;;;;;;;;;4.00;4.00;;;;;12.06;60.33;101240.34;2071124;28;47430;-58
2022/02/20 03:34:39;;;;;;;;;2.00;2.00;;;;;12.05;60.41;101234.13;2071081;28;46586;-57
2022/02/20 03:35:40;;;;;;;;;2.00;2.00;;;;;12.08;60.33;101238.53;2071280;28;47840;-57
2022/02/20 03:36:40;;;;;;;;;5.33;4.00;;;;;12.06;60.44;101237.66;2071180;28;47844;-55
2022/02/20 03:37:41;;;;;;;;;3.33;1.67;;;;;12.06;60.24;101235.00;2070752;28;47408;-56
2022/02/20 03:38:41;;;;;;;;;2.67;2.00;;;;;12.07;60.46;101228.81;2071067;28;47189;-57
2022/02/20 03:39:42;;;;;;;;;3.00;2.00;;;;;12.07;60.37;101232.34;2070799;28;47479;-58
2022/02/20 03:40:42;;;;;;;;;3.00;2.67;;;;;12.06;60.27;101230.56;2061467;28;47221;-56
2022/02/20 03:41:43;;;;;;;;;2.00;2.00;;;;;12.06;60.61;101227.91;2061786;28;48469;-57
2022/02/20 03:42:43;;;;;;;;;2.00;2.00;;;;;12.05;60.42;101230.59;2061777;28;47537;-54
2022/02/20 03:43:44;;;;;;;;;2.67;2.67;;;;;12.06;60.52;101238.53;2061813;28;47484;-58
2022/02/20 03:44:44;;;;;;;;;3.00;2.00;;;;;12.05;60.47;101235.91;2071114;28;47646;-56
2022/02/20 03:45:44;;;;;;;;;3.33;2.00;;;;;12.06;60.63;101237.66;2071111;28;47568;-57
2022/02/20 03:46:45;;;;;;;;;3.00;3.00;;;;;12.05;60.57;101230.59;2071237;28;46773;-56
2022/02/20 03:47:46;;;;;;;;;3.33;3.00;;;;;12.05;60.50;101239.47;2071198;28;47386;-56
2022/02/20 03:48:46;;;;;;;;;1.67;1.00;;;;;12.05;60.54;101238.56;2071221;28;47545;-57
2022/02/20 03:49:46;;;;;;;;;3.67;3.00;;;;;12.03;60.58;101230.63;2071106;28;47465;-55
2022/02/20 03:50:48;;;;;;;;;5.00;5.00;;;;;12.05;60.71;101247.44;2071162;28;47189;-55
2022/02/20 03:51:48;;;;;;;;;4.75;2.25;;;;;12.04;60.47;101237.69;2071423;28;47563;-58
2022/02/20 03:52:49;;;;;;;;;3.33;2.67;;;;;12.04;60.97;101248.34;2071026;28;47562;-57
2022/02/20 03:53:50;;;;;;;;;2.25;2.25;;;;;12.03;60.65;101245.72;2071098;28;48038;-56
2022/02/20 03:54:50;;;;;;;;;5.00;5.00;;;;;12.04;60.63;101240.38;2071523;28;45176;-57
2022/02/20 03:55:51;;;;;;;;;4.33;3.33;;;;;12.02;60.93;101251.94;2070921;28;47473;-57
2022/02/20 03:56:51;;;;;;;;;2.00;2.00;;;;;12.02;60.81;101249.28;2071394;28;47885;-57
2022/02/20 03:57:51;;;;;;;;;5.00;2.00;;;;;12.00;60.87;101241.34;2071145;28;46377;-57
2022/02/20 03:58:52;;;;;;;;;3.00;2.00;;;;;12.00;60.98;101240.47;2071145;28;47691;-58
2022/02/20 03:59:52;;;;;;;;;4.00;2.00;;;;;11.99;60.93;101233.41;2071215;28;48380;-57
2022/02/20 04:00:53;;;;;;;;;2.00;2.00;;;;;12.00;60.83;101243.13;2071053;28;47612;-57
2022/02/20 04:01:53;;;;;;;;;4.33;2.00;;;;;11.99;61.02;101241.38;2070974;28;47596;-58
2022/02/20 04:02:54;;;;;;;;;3.00;3.00;;;;;11.99;60.88;101249.34;2071038;28;48084;-58
2022/02/20 04:03:54;;;;;;;;;1.00;1.00;;;;;12.00;61.04;101245.78;2061696;28;47458;-57
2022/02/20 04:04:55;;;;;;;;;2.67;2.67;;;;;11.99;60.95;101246.69;2061818;28;47633;-55
2022/02/20 04:05:55;;;;;;;;;2.67;2.00;;;;;12.00;60.90;101236.03;2071113;28;47494;-57
2022/02/20 04:06:55;;;;;;;;;4.00;2.33;;;;;12.01;60.87;101242.22;2070804;28;47515;-57
2022/02/20 04:07:56;;;;;;;;;3.00;3.00;;;;;12.01;61.07;101243.09;2071069;28;47420;-57
2022/02/20 04:08:56;;;;;;;;;3.00;3.00;;;;;12.02;60.90;101241.31;2071016;28;48051;-55
2022/02/20 04:09:57;;;;;;;;;4.00;4.00;;;;;12.02;60.71;101233.31;2071127;28;47722;-56
2022/02/20 04:10:59;;;;;;;;;3.00;3.00;;;;;12.03;60.97;101237.75;2061393;28;47976;-56
2022/02/20 04:11:59;;;;;;;;;3.20;3.00;;;;;12.04;61.01;101240.38;2061771;28;47216;-56
2022/02/20 04:13:00;;;;;;;;;2.00;2.00;;;;;12.04;60.88;101240.38;2070960;28;47582;-57
2022/02/20 04:14:00;;;;;;;;;2.33;2.33;;;;;12.03;61.07;101238.63;2053576;28;47293;-57
2022/02/20 04:15:01;;;;;;;;;3.33;3.00;;;;;12.05;60.91;101236.78;2053731;28;47453;-57
2022/02/20 04:16:01;;;;;;;;;2.00;2.00;;;;;12.03;61.07;101230.63;2078649;28;47707;-57
2022/02/20 04:17:02;;;;;;;;;2.00;2.00;;;;;12.04;60.94;101236.81;2070592;28;47389;-57
2022/02/20 04:18:03;;;;;;;;;3.00;3.00;;;;;12.04;61.20;101232.38;2070227;28;45776;-54
2022/02/20 04:19:03;;;;;;;;;6.00;3.67;;;;;12.05;60.99;101234.13;2071012;28;47319;-54
2022/02/20 04:20:05;;;;;;;;;2.33;2.33;;;;;12.04;60.92;101224.41;2064787;28;47224;-57
2022/02/20 04:21:05;;;;;;;;;4.00;2.00;;;;;12.05;60.98;101227.94;2070081;28;48034;-55
2022/02/20 04:22:06;;;;;;;;;3.00;3.00;;;;;12.04;61.03;101218.22;2070954;28;47540;-56
2022/02/20 04:23:06;;;;;;;;;4.00;3.00;;;;;12.03;60.86;101222.66;2071265;28;47238;-57
2022/02/20 04:24:07;;;;;;;;;5.67;4.00;;;;;12.04;61.05;101229.72;2071021;28;47750;-56
2022/02/20 04:25:09;;;;;;;;;3.00;3.00;;;;;12.03;61.12;101217.34;2070710;28;47739;-56
2022/02/20 04:26:10;;;;;;;;;2.50;2.50;;;;;12.03;60.95;101222.66;2070920;28;48147;-57
2022/02/20 04:27:10;;;;;;;;;5.67;3.00;;;;;12.03;60.97;101217.34;2070971;28;47626;-56
2022/02/20 04:28:11;;;;;;;;;6.00;4.67;;;;;12.04;61.16;101211.09;2068665;28;47462;-55
2022/02/20 04:29:15;;;;;;;;;5.25;3.50;;;;;12.04;60.99;101212.88;2070658;28;48216;-55
2022/02/20 04:30:16;;;;;;;;;3.25;2.25;;;;;12.05;61.07;101211.97;2070743;28;47445;-56
2022/02/20 04:31:17;;;;;;;;;4.25;3.00;;;;;12.06;60.99;101216.38;2070992;28;47386;-56
2022/02/20 04:32:17;;;;;;;;;3.67;3.00;;;;;12.05;61.02;101215.50;2070802;28;46772;-56
2022/02/20 04:33:18;;;;;;;;;4.33;4.00;;;;;12.06;61.13;101219.94;2070819;28;47700;-55
2022/02/20 04:34:18;;;;;;;;;3.33;2.33;;;;;12.04;61.02;101221.75;2071861;28;47108;-54
2022/02/20 04:35:19;;;;;;;;;6.33;4.00;;;;;12.05;61.02;101222.63;2071998;28;47879;-55
2022/02/20 04:36:19;;;;;;;;;6.00;4.67;;;;;12.04;60.88;101224.41;2072259;28;47363;-58
2022/02/20 04:37:19;;;;;;;;;3.67;2.00;;;;;12.04;61.03;101234.16;2070561;28;47522;-55
2022/02/20 04:38:20;;;;;;;;;4.00;3.00;;;;;12.05;60.93;101227.94;2071014;28;47844;-57
2022/02/20 04:39:20;;;;;;;;;3.00;3.00;;;;;12.04;61.04;101227.06;2072457;28;47411;-55
2022/02/20 04:40:21;;;;;;;;;5.00;3.00;;;;;12.04;60.99;101231.50;2072030;28;47180;-57
2022/02/20 04:41:21;;;;;;;;;3.33;3.33;;;;;12.04;61.16;101227.06;2071748;28;47142;-55
2022/02/20 04:42:22;;;;;;;;;2.00;2.00;;;;;12.04;61.17;101224.41;2071659;28;47775;-57